sensor_id;sensor_type;location;lat;lon;timestamp;P1;durP1;ratioP1;P2;durP2;ratioP2
11125;SDS011;5617;54.046;10.676;2024-01-30T00:01:33;7.00;;;6.30;;
11125;SDS011;5617;54.046;10.676;2024-01-30T00:03:42;7.67;;;6.40;;
11125;SDS011;5617;54.046;10.676;2024-01-30T00:05:50;8.60;;;6.77;;
11125;SDS011;5617;54.046;10.676;2024-01-30T00:08:02;7.53;;;5.70;;
11125;SDS011;5617;54.046;10.676;2024-01-30T00:10:11;7.30;;;5.90;;
11125;SDS011;5617;54.046;10.676;2024-01-30T00:12:21;7.77;;;6.10;;
11125;SDS011;5617;54.046;10.676;2024-01-30T00:14:28;7.93;;;6.13;;
11125;SDS011;5617;54.046;10.676;2024-01-30T00:16:37;6.17;;;5.53;;
11125;SDS011;5617;54.046;10.676;2024-01-30T00:18:44;7.37;;;5.97;;
11125;SDS011;5617;54.046;10.676;2024-01-30T00:20:52;7.07;;;6.07;;
11125;SDS011;5617;54.046;10.676;2024-01-30T00:23:00;6.30;;;5.70;;
11125;SDS011;5617;54.046;10.676;2024-01-30T00:25:09;7.37;;;6.30;;
11125;SDS011;5617;54.046;10.676;2024-01-30T00:27:17;7.77;;;5.93;;
11125;SDS011;5617;54.046;10.676;2024-01-30T00:29:27;7.13;;;6.40;;
11125;SDS011;5617;54.046;10.676;2024-01-30T00:31:37;7.13;;;6.43;;
11125;SDS011;5617;54.046;10.676;2024-01-30T00:33:49;7.23;;;5.90;;
11125;SDS011;5617;54.046;10.676;2024-01-30T00:35:57;7.17;;;6.40;;
11125;SDS011;5617;54.046;10.676;2024-01-30T00:38:05;6.17;;;5.57;;
11125;SDS011;5617;54.046;10.676;2024-01-30T00:40:14;7.07;;;5.97;;
11125;SDS011;5617;54.046;10.676;2024-01-30T00:42:24;6.77;;;6.07;;
11125;SDS011;5617;54.046;10.676;2024-01-30T00:44:36;7.07;;;6.00;;
11125;SDS011;5617;54.046;10.676;2024-01-30T00:46:45;7.70;;;6.40;;
11125;SDS011;5617;54.046;10.676;2024-01-30T00:48:54;6.50;;;5.90;;
11125;SDS011;5617;54.046;10.676;2024-01-30T00:51:02;6.60;;;6.00;;
11125;SDS011;5617;54.046;10.676;2024-01-30T00:53:11;6.90;;;6.20;;
11125;SDS011;5617;54.046;10.676;2024-01-30T00:55:19;6.80;;;6.10;;
11125;SDS011;5617;54.046;10.676;2024-01-30T00:57:27;7.13;;;6.00;;
11125;SDS011;5617;54.046;10.676;2024-01-30T00:59:37;7.27;;;6.40;;
11125;SDS011;5617;54.046;10.676;2024-01-30T01:01:45;6.47;;;5.87;;
11125;SDS011;5617;54.046;10.676;2024-01-30T01:03:54;7.37;;;6.40;;
11125;SDS011;5617;54.046;10.676;2024-01-30T01:06:02;7.10;;;6.40;;
11125;SDS011;5617;54.046;10.676;2024-01-30T01:08:11;7.10;;;6.40;;
11125;SDS011;5617;54.046;10.676;2024-01-30T01:10:21;8.77;;;6.30;;
11125;SDS011;5617;54.046;10.676;2024-01-30T01:12:29;6.07;;;5.47;;
11125;SDS011;5617;54.046;10.676;2024-01-30T01:14:39;7.60;;;6.33;;
11125;SDS011;5617;54.046;10.676;2024-01-30T01:16:48;6.63;;;5.93;;
11125;SDS011;5617;54.046;10.676;2024-01-30T01:18:56;6.67;;;5.63;;
11125;SDS011;5617;54.046;10.676;2024-01-30T01:21:04;7.17;;;6.00;;
11125;SDS011;5617;54.046;10.676;2024-01-30T01:23:13;6.77;;;6.07;;
11125;SDS011;5617;54.046;10.676;2024-01-30T01:25:21;7.40;;;5.70;;
11125;SDS011;5617;54.046;10.676;2024-01-30T01:27:29;6.73;;;5.87;;
11125;SDS011;5617;54.046;10.676;2024-01-30T01:29:42;6.27;;;5.67;;
11125;SDS011;5617;54.046;10.676;2024-01-30T01:31:52;6.50;;;5.47;;
11125;SDS011;5617;54.046;10.676;2024-01-30T01:34:00;6.60;;;5.67;;
11125;SDS011;5617;54.046;10.676;2024-01-30T01:36:09;7.00;;;5.83;;
11125;SDS011;5617;54.046;10.676;2024-01-30T01:38:17;6.40;;;5.60;;
11125;SDS011;5617;54.046;10.676;2024-01-30T01:40:26;6.30;;;5.70;;
11125;SDS011;5617;54.046;10.676;2024-01-30T01:42:35;7.07;;;5.90;;
11125;SDS011;5617;54.046;10.676;2024-01-30T01:44:46;7.07;;;5.40;;
11125;SDS011;5617;54.046;10.676;2024-01-30T01:46:54;7.47;;;6.13;;
11125;SDS011;5617;54.046;10.676;2024-01-30T01:49:03;6.80;;;6.10;;
11125;SDS011;5617;54.046;10.676;2024-01-30T01:51:13;7.10;;;5.80;;
11125;SDS011;5617;54.046;10.676;2024-01-30T01:53:24;7.50;;;6.37;;
11125;SDS011;5617;54.046;10.676;2024-01-30T01:55:33;8.67;;;6.77;;
11125;SDS011;5617;54.046;10.676;2024-01-30T01:57:42;7.20;;;6.47;;
11125;SDS011;5617;54.046;10.676;2024-01-30T01:59:52;7.87;;;6.77;;
11125;SDS011;5617;54.046;10.676;2024-01-30T02:02:00;6.97;;;6.27;;
11125;SDS011;5617;54.046;10.676;2024-01-30T02:04:13;6.83;;;6.13;;
11125;SDS011;5617;54.046;10.676;2024-01-30T02:06:21;6.97;;;5.73;;
11125;SDS011;5617;54.046;10.676;2024-01-30T02:08:30;6.23;;;5.63;;
11125;SDS011;5617;54.046;10.676;2024-01-30T02:10:39;7.37;;;6.40;;
11125;SDS011;5617;54.046;10.676;2024-01-30T02:12:48;6.20;;;5.60;;
11125;SDS011;5617;54.046;10.676;2024-01-30T02:14:58;6.63;;;5.93;;
11125;SDS011;5617;54.046;10.676;2024-01-30T02:17:06;7.00;;;5.67;;
11125;SDS011;5617;54.046;10.676;2024-01-30T02:19:15;7.53;;;5.33;;
11125;SDS011;5617;54.046;10.676;2024-01-30T02:21:25;9.80;;;6.33;;
11125;SDS011;5617;54.046;10.676;2024-01-30T02:23:33;6.43;;;5.83;;
11125;SDS011;5617;54.046;10.676;2024-01-30T02:25:42;6.03;;;5.43;;
11125;SDS011;5617;54.046;10.676;2024-01-30T02:27:51;6.47;;;5.87;;
11125;SDS011;5617;54.046;10.676;2024-01-30T02:30:00;6.57;;;5.07;;
11125;SDS011;5617;54.046;10.676;2024-01-30T02:32:08;7.37;;;5.90;;
11125;SDS011;5617;54.046;10.676;2024-01-30T02:34:17;7.10;;;5.67;;
11125;SDS011;5617;54.046;10.676;2024-01-30T02:36:27;6.03;;;5.43;;
11125;SDS011;5617;54.046;10.676;2024-01-30T02:38:35;7.83;;;5.50;;
11125;SDS011;5617;54.046;10.676;2024-01-30T02:40:46;5.87;;;5.00;;
11125;SDS011;5617;54.046;10.676;2024-01-30T02:42:55;7.43;;;5.40;;
11125;SDS011;5617;54.046;10.676;2024-01-30T02:45:08;6.23;;;5.30;;
11125;SDS011;5617;54.046;10.676;2024-01-30T02:47:17;7.23;;;5.70;;
11125;SDS011;5617;54.046;10.676;2024-01-30T02:49:27;6.80;;;5.53;;
11125;SDS011;5617;54.046;10.676;2024-01-30T02:51:44;6.67;;;5.97;;
11125;SDS011;5617;54.046;10.676;2024-01-30T02:53:52;5.83;;;5.33;;
11125;SDS011;5617;54.046;10.676;2024-01-30T02:56:00;6.80;;;6.10;;
11125;SDS011;5617;54.046;10.676;2024-01-30T02:58:08;6.90;;;5.93;;
11125;SDS011;5617;54.046;10.676;2024-01-30T03:00:17;6.73;;;5.47;;
11125;SDS011;5617;54.046;10.676;2024-01-30T03:02:26;7.50;;;5.43;;
11125;SDS011;5617;54.046;10.676;2024-01-30T03:04:34;5.97;;;4.70;;
11125;SDS011;5617;54.046;10.676;2024-01-30T03:06:45;6.40;;;5.40;;
11125;SDS011;5617;54.046;10.676;2024-01-30T03:08:54;6.60;;;5.00;;
11125;SDS011;5617;54.046;10.676;2024-01-30T03:11:02;6.33;;;5.73;;
11125;SDS011;5617;54.046;10.676;2024-01-30T03:13:11;6.63;;;5.83;;
11125;SDS011;5617;54.046;10.676;2024-01-30T03:15:19;6.17;;;5.33;;
11125;SDS011;5617;54.046;10.676;2024-01-30T03:17:28;6.30;;;5.10;;
11125;SDS011;5617;54.046;10.676;2024-01-30T03:19:36;6.87;;;5.10;;
11125;SDS011;5617;54.046;10.676;2024-01-30T03:21:45;6.13;;;5.53;;
11125;SDS011;5617;54.046;10.676;2024-01-30T03:23:54;6.13;;;5.33;;
11125;SDS011;5617;54.046;10.676;2024-01-30T03:26:03;7.87;;;5.97;;
11125;SDS011;5617;54.046;10.676;2024-01-30T03:28:13;6.50;;;5.47;;
11125;SDS011;5617;54.046;10.676;2024-01-30T03:30:21;6.10;;;5.43;;
11125;SDS011;5617;54.046;10.676;2024-01-30T03:32:29;8.70;;;5.30;;
11125;SDS011;5617;54.046;10.676;2024-01-30T03:34:37;5.43;;;4.90;;
11125;SDS011;5617;54.046;10.676;2024-01-30T03:36:47;6.13;;;5.23;;
11125;SDS011;5617;54.046;10.676;2024-01-30T03:38:55;6.97;;;5.43;;
11125;SDS011;5617;54.046;10.676;2024-01-30T03:41:03;5.80;;;5.17;;
11125;SDS011;5617;54.046;10.676;2024-01-30T03:43:16;7.83;;;5.60;;
11125;SDS011;5617;54.046;10.676;2024-01-30T03:45:24;5.87;;;5.27;;
11125;SDS011;5617;54.046;10.676;2024-01-30T03:47:32;7.00;;;5.43;;
11125;SDS011;5617;54.046;10.676;2024-01-30T03:49:41;6.23;;;5.63;;
11125;SDS011;5617;54.046;10.676;2024-01-30T03:51:50;7.03;;;5.30;;
11125;SDS011;5617;54.046;10.676;2024-01-30T03:53:59;5.67;;;5.03;;
11125;SDS011;5617;54.046;10.676;2024-01-30T03:56:08;6.27;;;5.67;;
11125;SDS011;5617;54.046;10.676;2024-01-30T03:58:17;6.43;;;5.77;;
11125;SDS011;5617;54.046;10.676;2024-01-30T04:00:25;6.83;;;5.33;;
11125;SDS011;5617;54.046;10.676;2024-01-30T04:02:34;6.87;;;5.27;;
11125;SDS011;5617;54.046;10.676;2024-01-30T04:04:42;5.87;;;5.27;;
11125;SDS011;5617;54.046;10.676;2024-01-30T04:06:51;7.60;;;5.43;;
11125;SDS011;5617;54.046;10.676;2024-01-30T04:08:59;6.80;;;5.70;;
11125;SDS011;5617;54.046;10.676;2024-01-30T04:11:08;7.30;;;5.60;;
11125;SDS011;5617;54.046;10.676;2024-01-30T04:13:16;7.03;;;5.53;;
11125;SDS011;5617;54.046;10.676;2024-01-30T04:15:24;6.10;;;5.30;;
11125;SDS011;5617;54.046;10.676;2024-01-30T04:17:33;6.87;;;5.73;;
11125;SDS011;5617;54.046;10.676;2024-01-30T04:19:41;5.93;;;5.27;;
11125;SDS011;5617;54.046;10.676;2024-01-30T04:21:51;6.00;;;5.43;;
11125;SDS011;5617;54.046;10.676;2024-01-30T04:24:00;5.70;;;5.10;;
11125;SDS011;5617;54.046;10.676;2024-01-30T04:26:08;6.03;;;5.37;;
11125;SDS011;5617;54.046;10.676;2024-01-30T04:28:16;6.20;;;5.37;;
11125;SDS011;5617;54.046;10.676;2024-01-30T04:30:26;6.47;;;5.50;;
11125;SDS011;5617;54.046;10.676;2024-01-30T04:32:34;6.20;;;5.13;;
11125;SDS011;5617;54.046;10.676;2024-01-30T04:34:42;6.27;;;5.60;;
11125;SDS011;5617;54.046;10.676;2024-01-30T04:36:51;6.23;;;5.57;;
11125;SDS011;5617;54.046;10.676;2024-01-30T04:39:00;7.83;;;5.67;;
11125;SDS011;5617;54.046;10.676;2024-01-30T04:41:08;7.97;;;5.87;;
11125;SDS011;5617;54.046;10.676;2024-01-30T04:43:16;6.57;;;5.47;;
11125;SDS011;5617;54.046;10.676;2024-01-30T04:45:25;6.50;;;5.60;;
11125;SDS011;5617;54.046;10.676;2024-01-30T04:47:34;6.67;;;5.43;;
11125;SDS011;5617;54.046;10.676;2024-01-30T04:49:42;6.67;;;5.93;;
11125;SDS011;5617;54.046;10.676;2024-01-30T04:51:52;5.93;;;5.37;;
11125;SDS011;5617;54.046;10.676;2024-01-30T04:54:00;6.07;;;5.47;;
11125;SDS011;5617;54.046;10.676;2024-01-30T04:56:08;6.40;;;5.63;;
11125;SDS011;5617;54.046;10.676;2024-01-30T04:58:17;7.80;;;5.97;;
11125;SDS011;5617;54.046;10.676;2024-01-30T05:00:25;6.00;;;5.40;;
11125;SDS011;5617;54.046;10.676;2024-01-30T05:02:33;7.90;;;5.87;;
11125;SDS011;5617;54.046;10.676;2024-01-30T05:04:42;8.93;;;6.20;;
11125;SDS011;5617;54.046;10.676;2024-01-30T05:06:51;6.13;;;5.53;;
11125;SDS011;5617;54.046;10.676;2024-01-30T05:08:58;5.97;;;5.37;;
11125;SDS011;5617;54.046;10.676;2024-01-30T05:11:07;7.73;;;5.60;;
11125;SDS011;5617;54.046;10.676;2024-01-30T05:13:15;6.80;;;5.50;;
11125;SDS011;5617;54.046;10.676;2024-01-30T05:15:23;6.50;;;5.33;;
11125;SDS011;5617;54.046;10.676;2024-01-30T05:17:31;6.70;;;5.63;;
11125;SDS011;5617;54.046;10.676;2024-01-30T05:19:40;7.53;;;5.40;;
11125;SDS011;5617;54.046;10.676;2024-01-30T05:21:48;6.50;;;5.13;;
11125;SDS011;5617;54.046;10.676;2024-01-30T05:23:58;5.47;;;4.97;;
11125;SDS011;5617;54.046;10.676;2024-01-30T05:26:07;6.00;;;5.40;;
11125;SDS011;5617;54.046;10.676;2024-01-30T05:28:15;9.77;;;5.53;;
11125;SDS011;5617;54.046;10.676;2024-01-30T05:30:23;6.93;;;5.83;;
11125;SDS011;5617;54.046;10.676;2024-01-30T05:32:31;5.80;;;5.10;;
11125;SDS011;5617;54.046;10.676;2024-01-30T05:34:39;7.70;;;6.47;;
11125;SDS011;5617;54.046;10.676;2024-01-30T05:36:47;6.80;;;6.10;;
11125;SDS011;5617;54.046;10.676;2024-01-30T05:38:56;7.87;;;6.60;;
11125;SDS011;5617;54.046;10.676;2024-01-30T05:41:05;8.23;;;6.67;;
11125;SDS011;5617;54.046;10.676;2024-01-30T05:43:14;6.80;;;6.10;;
11125;SDS011;5617;54.046;10.676;2024-01-30T05:45:22;9.10;;;6.70;;
11125;SDS011;5617;54.046;10.676;2024-01-30T05:47:31;7.47;;;6.60;;
11125;SDS011;5617;54.046;10.676;2024-01-30T05:49:39;7.13;;;6.13;;
11125;SDS011;5617;54.046;10.676;2024-01-30T05:51:47;8.17;;;6.40;;
11125;SDS011;5617;54.046;10.676;2024-01-30T05:53:56;7.67;;;6.17;;
11125;SDS011;5617;54.046;10.676;2024-01-30T05:56:06;8.73;;;6.50;;
11125;SDS011;5617;54.046;10.676;2024-01-30T05:58:15;12.63;;;9.47;;
11125;SDS011;5617;54.046;10.676;2024-01-30T06:00:23;10.23;;;8.53;;
11125;SDS011;5617;54.046;10.676;2024-01-30T06:02:31;11.63;;;8.17;;
11125;SDS011;5617;54.046;10.676;2024-01-30T06:04:40;13.00;;;10.57;;
11125;SDS011;5617;54.046;10.676;2024-01-30T06:06:48;10.20;;;7.60;;
11125;SDS011;5617;54.046;10.676;2024-01-30T06:08:57;7.10;;;6.40;;
11125;SDS011;5617;54.046;10.676;2024-01-30T06:11:09;10.20;;;6.67;;
11125;SDS011;5617;54.046;10.676;2024-01-30T06:13:18;8.07;;;7.27;;
11125;SDS011;5617;54.046;10.676;2024-01-30T06:15:26;7.23;;;6.23;;
11125;SDS011;5617;54.046;10.676;2024-01-30T06:17:36;7.47;;;6.03;;
11125;SDS011;5617;54.046;10.676;2024-01-30T06:19:44;8.17;;;6.40;;
11125;SDS011;5617;54.046;10.676;2024-01-30T06:21:53;7.60;;;6.80;;
11125;SDS011;5617;54.046;10.676;2024-01-30T06:24:02;7.77;;;6.47;;
11125;SDS011;5617;54.046;10.676;2024-01-30T06:26:12;7.97;;;6.80;;
11125;SDS011;5617;54.046;10.676;2024-01-30T06:28:21;11.20;;;7.13;;
11125;SDS011;5617;54.046;10.676;2024-01-30T06:30:29;6.40;;;5.57;;
11125;SDS011;5617;54.046;10.676;2024-01-30T06:32:37;6.87;;;5.73;;
11125;SDS011;5617;54.046;10.676;2024-01-30T06:34:46;9.30;;;6.50;;
11125;SDS011;5617;54.046;10.676;2024-01-30T06:36:56;7.67;;;5.83;;
11125;SDS011;5617;54.046;10.676;2024-01-30T06:39:04;6.60;;;5.73;;
11125;SDS011;5617;54.046;10.676;2024-01-30T06:41:14;7.63;;;6.00;;
11125;SDS011;5617;54.046;10.676;2024-01-30T06:43:22;8.80;;;6.50;;
11125;SDS011;5617;54.046;10.676;2024-01-30T06:45:30;8.17;;;6.33;;
11125;SDS011;5617;54.046;10.676;2024-01-30T06:47:39;8.23;;;6.30;;
11125;SDS011;5617;54.046;10.676;2024-01-30T06:49:47;8.17;;;6.13;;
11125;SDS011;5617;54.046;10.676;2024-01-30T06:51:56;9.10;;;6.53;;
11125;SDS011;5617;54.046;10.676;2024-01-30T06:54:04;9.57;;;6.70;;
11125;SDS011;5617;54.046;10.676;2024-01-30T06:56:15;6.90;;;6.20;;
11125;SDS011;5617;54.046;10.676;2024-01-30T06:58:27;7.33;;;6.60;;
11125;SDS011;5617;54.046;10.676;2024-01-30T07:00:42;9.67;;;7.03;;
11125;SDS011;5617;54.046;10.676;2024-01-30T07:02:51;8.90;;;7.13;;
11125;SDS011;5617;54.046;10.676;2024-01-30T07:04:59;7.87;;;6.83;;
11125;SDS011;5617;54.046;10.676;2024-01-30T07:07:08;8.90;;;6.70;;
11125;SDS011;5617;54.046;10.676;2024-01-30T07:09:20;7.43;;;6.53;;
11125;SDS011;5617;54.046;10.676;2024-01-30T07:11:31;8.10;;;7.07;;
11125;SDS011;5617;54.046;10.676;2024-01-30T07:13:39;8.97;;;6.93;;
11125;SDS011;5617;54.046;10.676;2024-01-30T07:15:47;7.60;;;6.70;;
11125;SDS011;5617;54.046;10.676;2024-01-30T07:17:55;9.00;;;6.77;;
11125;SDS011;5617;54.046;10.676;2024-01-30T07:20:05;7.50;;;6.67;;
11125;SDS011;5617;54.046;10.676;2024-01-30T07:22:21;7.17;;;6.47;;
11125;SDS011;5617;54.046;10.676;2024-01-30T07:24:30;7.00;;;6.30;;
11125;SDS011;5617;54.046;10.676;2024-01-30T07:26:39;8.27;;;6.70;;
11125;SDS011;5617;54.046;10.676;2024-01-30T07:28:48;7.93;;;6.77;;
11125;SDS011;5617;54.046;10.676;2024-01-30T07:30:56;6.90;;;6.13;;
11125;SDS011;5617;54.046;10.676;2024-01-30T07:33:05;7.87;;;7.00;;
11125;SDS011;5617;54.046;10.676;2024-01-30T07:35:13;8.77;;;6.70;;
11125;SDS011;5617;54.046;10.676;2024-01-30T07:37:22;9.37;;;6.83;;
11125;SDS011;5617;54.046;10.676;2024-01-30T07:39:31;8.90;;;6.57;;
11125;SDS011;5617;54.046;10.676;2024-01-30T07:41:41;7.63;;;6.83;;
11125;SDS011;5617;54.046;10.676;2024-01-30T07:43:49;8.57;;;7.10;;
11125;SDS011;5617;54.046;10.676;2024-01-30T07:45:57;8.77;;;7.13;;
11125;SDS011;5617;54.046;10.676;2024-01-30T07:48:06;9.50;;;7.30;;
11125;SDS011;5617;54.046;10.676;2024-01-30T07:50:15;8.70;;;7.27;;
11125;SDS011;5617;54.046;10.676;2024-01-30T07:52:23;8.80;;;7.30;;
11125;SDS011;5617;54.046;10.676;2024-01-30T07:54:32;9.27;;;7.37;;
11125;SDS011;5617;54.046;10.676;2024-01-30T07:57:00;9.57;;;7.17;;
11125;SDS011;5617;54.046;10.676;2024-01-30T07:59:09;10.07;;;7.47;;
11125;SDS011;5617;54.046;10.676;2024-01-30T08:01:18;8.73;;;7.43;;
11125;SDS011;5617;54.046;10.676;2024-01-30T08:03:26;10.20;;;7.50;;
11125;SDS011;5617;54.046;10.676;2024-01-30T08:05:35;8.53;;;7.50;;
11125;SDS011;5617;54.046;10.676;2024-01-30T08:07:43;9.23;;;8.17;;
11125;SDS011;5617;54.046;10.676;2024-01-30T08:09:52;9.70;;;8.03;;
11125;SDS011;5617;54.046;10.676;2024-01-30T08:12:02;8.57;;;7.43;;
11125;SDS011;5617;54.046;10.676;2024-01-30T08:14:11;9.03;;;8.07;;
11125;SDS011;5617;54.046;10.676;2024-01-30T08:16:20;9.97;;;7.07;;
11125;SDS011;5617;54.046;10.676;2024-01-30T08:18:29;10.20;;;7.73;;
11125;SDS011;5617;54.046;10.676;2024-01-30T08:20:37;10.00;;;7.27;;
11125;SDS011;5617;54.046;10.676;2024-01-30T08:22:45;8.30;;;7.50;;
11125;SDS011;5617;54.046;10.676;2024-01-30T08:24:53;11.57;;;7.67;;
11125;SDS011;5617;54.046;10.676;2024-01-30T08:27:04;10.57;;;8.17;;
11125;SDS011;5617;54.046;10.676;2024-01-30T08:29:13;10.40;;;7.83;;
11125;SDS011;5617;54.046;10.676;2024-01-30T08:31:21;10.63;;;9.53;;
11125;SDS011;5617;54.046;10.676;2024-01-30T08:33:30;9.67;;;8.67;;
11125;SDS011;5617;54.046;10.676;2024-01-30T08:35:38;9.67;;;7.70;;
11125;SDS011;5617;54.046;10.676;2024-01-30T08:37:46;8.67;;;7.23;;
11125;SDS011;5617;54.046;10.676;2024-01-30T08:39:56;10.30;;;7.40;;
11125;SDS011;5617;54.046;10.676;2024-01-30T08:42:06;10.00;;;8.47;;
11125;SDS011;5617;54.046;10.676;2024-01-30T08:44:14;9.73;;;8.73;;
11125;SDS011;5617;54.046;10.676;2024-01-30T08:46:24;9.03;;;7.53;;
11125;SDS011;5617;54.046;10.676;2024-01-30T08:48:32;9.17;;;7.67;;
11125;SDS011;5617;54.046;10.676;2024-01-30T08:50:40;8.80;;;7.67;;
11125;SDS011;5617;54.046;10.676;2024-01-30T08:52:48;9.03;;;7.73;;
11125;SDS011;5617;54.046;10.676;2024-01-30T08:54:56;9.57;;;7.90;;
11125;SDS011;5617;54.046;10.676;2024-01-30T08:57:06;10.90;;;8.13;;
11125;SDS011;5617;54.046;10.676;2024-01-30T08:59:14;11.27;;;8.03;;
11125;SDS011;5617;54.046;10.676;2024-01-30T09:01:23;11.27;;;8.60;;
11125;SDS011;5617;54.046;10.676;2024-01-30T09:03:32;10.00;;;8.53;;
11125;SDS011;5617;54.046;10.676;2024-01-30T09:05:41;9.30;;;8.30;;
11125;SDS011;5617;54.046;10.676;2024-01-30T09:07:49;11.70;;;8.57;;
11125;SDS011;5617;54.046;10.676;2024-01-30T09:09:56;11.27;;;8.67;;
11125;SDS011;5617;54.046;10.676;2024-01-30T09:12:07;8.83;;;7.67;;
11125;SDS011;5617;54.046;10.676;2024-01-30T09:14:18;11.10;;;8.10;;
11125;SDS011;5617;54.046;10.676;2024-01-30T09:16:27;10.73;;;8.47;;
11125;SDS011;5617;54.046;10.676;2024-01-30T09:18:43;14.97;;;10.67;;
11125;SDS011;5617;54.046;10.676;2024-01-30T09:20:52;10.27;;;8.23;;
11125;SDS011;5617;54.046;10.676;2024-01-30T09:23:00;8.67;;;7.77;;
11125;SDS011;5617;54.046;10.676;2024-01-30T09:25:09;9.60;;;8.40;;
11125;SDS011;5617;54.046;10.676;2024-01-30T09:27:18;9.23;;;8.23;;
11125;SDS011;5617;54.046;10.676;2024-01-30T09:29:27;14.00;;;10.90;;
11125;SDS011;5617;54.046;10.676;2024-01-30T09:31:36;11.47;;;8.70;;
11125;SDS011;5617;54.046;10.676;2024-01-30T09:33:44;10.10;;;8.67;;
11125;SDS011;5617;54.046;10.676;2024-01-30T09:35:54;10.63;;;8.07;;
11125;SDS011;5617;54.046;10.676;2024-01-30T09:38:03;9.77;;;8.40;;
11125;SDS011;5617;54.046;10.676;2024-01-30T09:40:11;10.40;;;8.37;;
11125;SDS011;5617;54.046;10.676;2024-01-30T09:42:25;10.37;;;8.40;;
11125;SDS011;5617;54.046;10.676;2024-01-30T09:44:35;9.73;;;8.43;;
11125;SDS011;5617;54.046;10.676;2024-01-30T09:46:48;12.33;;;9.07;;
11125;SDS011;5617;54.046;10.676;2024-01-30T09:48:58;9.23;;;8.20;;
11125;SDS011;5617;54.046;10.676;2024-01-30T09:51:09;9.43;;;7.77;;
11125;SDS011;5617;54.046;10.676;2024-01-30T09:53:18;10.47;;;8.33;;
11125;SDS011;5617;54.046;10.676;2024-01-30T09:55:27;11.80;;;8.70;;
11125;SDS011;5617;54.046;10.676;2024-01-30T09:57:37;9.10;;;8.20;;
11125;SDS011;5617;54.046;10.676;2024-01-30T09:59:46;9.57;;;8.17;;
11125;SDS011;5617;54.046;10.676;2024-01-30T10:02:01;9.03;;;8.10;;
11125;SDS011;5617;54.046;10.676;2024-01-30T10:04:13;10.30;;;8.70;;
11125;SDS011;5617;54.046;10.676;2024-01-30T10:06:21;8.37;;;7.50;;
11125;SDS011;5617;54.046;10.676;2024-01-30T10:08:32;9.97;;;8.03;;
11125;SDS011;5617;54.046;10.676;2024-01-30T10:10:40;8.93;;;8.00;;
11125;SDS011;5617;54.046;10.676;2024-01-30T10:12:50;9.47;;;7.63;;
11125;SDS011;5617;54.046;10.676;2024-01-30T10:14:59;8.77;;;7.87;;
11125;SDS011;5617;54.046;10.676;2024-01-30T10:17:07;8.70;;;7.80;;
11125;SDS011;5617;54.046;10.676;2024-01-30T10:19:29;9.13;;;7.93;;
11125;SDS011;5617;54.046;10.676;2024-01-30T10:21:38;8.77;;;7.57;;
11125;SDS011;5617;54.046;10.676;2024-01-30T10:23:46;9.73;;;8.20;;
11125;SDS011;5617;54.046;10.676;2024-01-30T10:25:55;11.20;;;9.47;;
11125;SDS011;5617;54.046;10.676;2024-01-30T10:28:05;11.00;;;9.70;;
11125;SDS011;5617;54.046;10.676;2024-01-30T10:30:13;10.03;;;8.47;;
11125;SDS011;5617;54.046;10.676;2024-01-30T10:32:21;10.60;;;8.33;;
11125;SDS011;5617;54.046;10.676;2024-01-30T10:34:29;10.43;;;7.90;;
11125;SDS011;5617;54.046;10.676;2024-01-30T10:36:39;10.33;;;7.67;;
11125;SDS011;5617;54.046;10.676;2024-01-30T10:38:48;9.13;;;8.10;;
11125;SDS011;5617;54.046;10.676;2024-01-30T10:40:59;11.70;;;8.20;;
11125;SDS011;5617;54.046;10.676;2024-01-30T10:43:10;9.20;;;8.10;;
11125;SDS011;5617;54.046;10.676;2024-01-30T10:45:21;9.33;;;7.73;;
11125;SDS011;5617;54.046;10.676;2024-01-30T10:47:30;8.40;;;7.60;;
11125;SDS011;5617;54.046;10.676;2024-01-30T10:49:41;8.50;;;7.70;;
11125;SDS011;5617;54.046;10.676;2024-01-30T10:51:50;10.23;;;8.27;;
11125;SDS011;5617;54.046;10.676;2024-01-30T10:53:59;9.07;;;8.03;;
11125;SDS011;5617;54.046;10.676;2024-01-30T10:56:09;10.27;;;8.03;;
11125;SDS011;5617;54.046;10.676;2024-01-30T10:58:23;8.60;;;7.43;;
11125;SDS011;5617;54.046;10.676;2024-01-30T11:00:32;10.37;;;7.80;;
11125;SDS011;5617;54.046;10.676;2024-01-30T11:02:41;8.50;;;7.47;;
11125;SDS011;5617;54.046;10.676;2024-01-30T11:04:54;8.50;;;7.40;;
11125;SDS011;5617;54.046;10.676;2024-01-30T11:07:13;8.17;;;6.20;;
11125;SDS011;5617;54.046;10.676;2024-01-30T11:09:22;10.60;;;8.27;;
11125;SDS011;5617;54.046;10.676;2024-01-30T11:11:31;8.17;;;6.57;;
11125;SDS011;5617;54.046;10.676;2024-01-30T11:13:40;11.23;;;7.60;;
11125;SDS011;5617;54.046;10.676;2024-01-30T11:15:50;9.43;;;7.50;;
11125;SDS011;5617;54.046;10.676;2024-01-30T11:17:57;9.67;;;7.93;;
11125;SDS011;5617;54.046;10.676;2024-01-30T11:20:09;8.77;;;7.40;;
11125;SDS011;5617;54.046;10.676;2024-01-30T11:22:19;8.20;;;7.40;;
11125;SDS011;5617;54.046;10.676;2024-01-30T11:24:28;9.23;;;7.60;;
11125;SDS011;5617;54.046;10.676;2024-01-30T11:26:35;7.33;;;6.63;;
11125;SDS011;5617;54.046;10.676;2024-01-30T11:28:53;10.93;;;7.93;;
11125;SDS011;5617;54.046;10.676;2024-01-30T11:31:07;9.93;;;7.67;;
11125;SDS011;5617;54.046;10.676;2024-01-30T11:33:16;8.63;;;7.73;;
11125;SDS011;5617;54.046;10.676;2024-01-30T11:35:41;9.40;;;6.77;;
11125;SDS011;5617;54.046;10.676;2024-01-30T11:37:52;7.50;;;6.57;;
11125;SDS011;5617;54.046;10.676;2024-01-30T11:40:00;9.30;;;6.97;;
11125;SDS011;5617;54.046;10.676;2024-01-30T11:42:11;8.23;;;7.43;;
11125;SDS011;5617;54.046;10.676;2024-01-30T11:44:22;10.00;;;7.50;;
11125;SDS011;5617;54.046;10.676;2024-01-30T11:46:31;10.63;;;7.97;;
11125;SDS011;5617;54.046;10.676;2024-01-30T11:48:40;9.63;;;7.57;;
11125;SDS011;5617;54.046;10.676;2024-01-30T11:50:48;8.53;;;7.43;;
11125;SDS011;5617;54.046;10.676;2024-01-30T11:52:58;8.83;;;7.73;;
11125;SDS011;5617;54.046;10.676;2024-01-30T11:55:08;9.47;;;7.63;;
11125;SDS011;5617;54.046;10.676;2024-01-30T11:57:17;7.87;;;7.07;;
11125;SDS011;5617;54.046;10.676;2024-01-30T11:59:26;8.47;;;7.40;;
11125;SDS011;5617;54.046;10.676;2024-01-30T12:01:34;7.93;;;7.07;;
11125;SDS011;5617;54.046;10.676;2024-01-30T12:03:48;9.90;;;7.70;;
11125;SDS011;5617;54.046;10.676;2024-01-30T12:05:57;8.63;;;7.47;;
11125;SDS011;5617;54.046;10.676;2024-01-30T12:08:06;8.67;;;7.77;;
11125;SDS011;5617;54.046;10.676;2024-01-30T12:10:14;8.53;;;7.63;;
11125;SDS011;5617;54.046;10.676;2024-01-30T12:12:25;9.43;;;7.87;;
11125;SDS011;5617;54.046;10.676;2024-01-30T12:14:36;8.10;;;7.30;;
11125;SDS011;5617;54.046;10.676;2024-01-30T12:16:47;10.90;;;7.80;;
11125;SDS011;5617;54.046;10.676;2024-01-30T12:19:00;9.30;;;7.97;;
11125;SDS011;5617;54.046;10.676;2024-01-30T12:21:09;9.27;;;7.70;;
11125;SDS011;5617;54.046;10.676;2024-01-30T12:23:18;9.03;;;7.60;;
11125;SDS011;5617;54.046;10.676;2024-01-30T12:25:27;10.07;;;7.63;;
11125;SDS011;5617;54.046;10.676;2024-01-30T12:27:44;10.50;;;7.53;;
11125;SDS011;5617;54.046;10.676;2024-01-30T12:29:57;10.43;;;7.47;;
11125;SDS011;5617;54.046;10.676;2024-01-30T12:32:06;9.33;;;8.20;;
11125;SDS011;5617;54.046;10.676;2024-01-30T12:34:16;8.97;;;7.47;;
11125;SDS011;5617;54.046;10.676;2024-01-30T12:36:28;8.47;;;7.10;;
11125;SDS011;5617;54.046;10.676;2024-01-30T12:38:36;8.70;;;7.83;;
11125;SDS011;5617;54.046;10.676;2024-01-30T12:40:45;8.90;;;7.37;;
11125;SDS011;5617;54.046;10.676;2024-01-30T12:42:53;9.40;;;7.87;;
11125;SDS011;5617;54.046;10.676;2024-01-30T12:45:04;8.67;;;7.40;;
11125;SDS011;5617;54.046;10.676;2024-01-30T12:47:13;9.33;;;7.50;;
11125;SDS011;5617;54.046;10.676;2024-01-30T12:49:22;8.47;;;7.37;;
11125;SDS011;5617;54.046;10.676;2024-01-30T12:51:33;8.40;;;7.27;;
11125;SDS011;5617;54.046;10.676;2024-01-30T12:53:42;9.57;;;7.03;;
11125;SDS011;5617;54.046;10.676;2024-01-30T12:55:50;8.80;;;7.20;;
11125;SDS011;5617;54.046;10.676;2024-01-30T12:57:57;9.23;;;7.60;;